PWSweather.com
Personal Weather Stations
Station Observations
IMAZOWIE6
WarszawaPL

WarszawaPL

Lat: 52.27957, Lon: 21.05489

Elevation: 100

Station Type: WS1080

http://stacjapogody.waw.pl/

High Low Average
Temperature 27.3°F-2.6°C 25.9°F-3.4°C 26.6°F-3.0°C
Dew Point 13.3°F-10.4°C -21.0°F-29.4°C -6.0°F-21.1°C
Winds 2.0 mph 3.2 kmh Calm Calm Calm NCalm N
Wind Gusts 5.4 mph8.7 kmh -- 2.0 mph3.2 kmh
Humidity 57% 11% 28%
Pressure 29.47 in998.0 mb 29.35 in993.9 mb -
Precipitation 0.00 in0.0 mm - -
Hour Temp Dew Point Humidity Winds Wind Gusts Pressure Precip Precip Rate Daily Precip Total
12:06 AM 26.4°F-3.1°C 13.1°F-10.5°C 57% 0.6 mph N1.0 kmh N 2.8 mph4.5 kmh 29.39 in995.3 mb 0.00 in0.0 mm 0.00 in0.0 mm 0.00 in0.0 mm
12:21 AM 26.2°F-3.2°C 12.9°F-10.6°C 57% 2.0 mph N3.2 kmh N 4.8 mph7.7 kmh 29.39 in995.3 mb 0.00 in0.0 mm 0.00 in0.0 mm 0.00 in0.0 mm
12:36 AM 26.4°F-3.1°C 13.1°F-10.5°C 57% 1.4 mph N2.3 kmh N 4.8 mph7.7 kmh 29.40 in995.6 mb 0.00 in0.0 mm 0.00 in0.0 mm 0.00 in0.0 mm
12:51 AM 26.6°F-3.0°C 13.3°F-10.4°C 57% 1.4 mph N2.3 kmh N 3.4 mph5.5 kmh 29.39 in995.3 mb 0.00 in0.0 mm 0.00 in0.0 mm 0.00 in0.0 mm
01:06 AM 26.6°F-3.0°C 13.3°F-10.4°C 57% 0.6 mph N1.0 kmh N 2.8 mph4.5 kmh 29.39 in995.3 mb 0.00 in0.0 mm 0.00 in0.0 mm 0.00 in0.0 mm
01:21 AM 26.6°F-3.0°C 13.3°F-10.4°C 57% 0.6 mph N1.0 kmh N 2.8 mph4.5 kmh 29.39 in995.3 mb 0.00 in0.0 mm 0.00 in0.0 mm 0.00 in0.0 mm
01:36 AM 26.6°F-3.0°C 12.8°F-10.7°C 56% Calm Calm 1.4 mph2.3 kmh 29.39 in995.3 mb 0.00 in0.0 mm 0.00 in0.0 mm 0.00 in0.0 mm
01:51 AM 26.4°F-3.1°C 13.1°F-10.5°C 57% 1.4 mph N2.3 kmh N 4.8 mph7.7 kmh 29.38 in994.9 mb 0.00 in0.0 mm 0.00 in0.0 mm 0.00 in0.0 mm
02:06 AM 26.4°F-3.1°C 13.1°F-10.5°C 57% 0.6 mph N1.0 kmh N 3.4 mph5.5 kmh 29.38 in994.9 mb 0.00 in0.0 mm 0.00 in0.0 mm 0.00 in0.0 mm
02:21 AM 26.4°F-3.1°C 12.7°F-10.7°C 56% Calm Calm 1.4 mph2.3 kmh 29.38 in994.9 mb 0.00 in0.0 mm 0.00 in0.0 mm 0.00 in0.0 mm
02:36 AM 26.4°F-3.1°C 12.7°F-10.7°C 56% 0.6 mph N1.0 kmh N 2.8 mph4.5 kmh 29.38 in994.9 mb 0.00 in0.0 mm 0.00 in0.0 mm 0.00 in0.0 mm
02:51 AM 26.6°F-3.0°C 12.8°F-10.7°C 56% Calm Calm 0.6 mph1.0 kmh 29.37 in994.6 mb 0.00 in0.0 mm 0.00 in0.0 mm 0.00 in0.0 mm
03:06 AM 26.6°F-3.0°C 12.8°F-10.7°C 56% Calm Calm 2.0 mph3.2 kmh 29.37 in994.6 mb 0.00 in0.0 mm 0.00 in0.0 mm 0.00 in0.0 mm
03:21 AM 26.2°F-3.2°C 12.5°F-10.8°C 56% Calm Calm 1.4 mph2.3 kmh 29.37 in994.6 mb 0.00 in0.0 mm 0.00 in0.0 mm 0.00 in0.0 mm
03:36 AM 26.4°F-3.1°C 12.7°F-10.7°C 56% Calm Calm 2.0 mph3.2 kmh 29.37 in994.6 mb 0.00 in0.0 mm 0.00 in0.0 mm 0.00 in0.0 mm
03:51 AM 26.4°F-3.1°C 12.3°F-10.9°C 55% Calm Calm 1.4 mph2.3 kmh 29.36 in994.2 mb 0.00 in0.0 mm 0.00 in0.0 mm 0.00 in0.0 mm
04:06 AM 26.2°F-3.2°C 12.1°F-11.1°C 55% 0.6 mph N1.0 kmh N 3.4 mph5.5 kmh 29.36 in994.2 mb 0.00 in0.0 mm 0.00 in0.0 mm 0.00 in0.0 mm
04:21 AM 26.2°F-3.2°C 12.1°F-11.1°C 55% Calm Calm 2.0 mph3.2 kmh 29.36 in994.2 mb 0.00 in0.0 mm 0.00 in0.0 mm 0.00 in0.0 mm
04:36 AM 26.2°F-3.2°C 11.7°F-11.3°C 54% Calm Calm 2.0 mph3.2 kmh 29.36 in994.2 mb 0.00 in0.0 mm 0.00 in0.0 mm 0.00 in0.0 mm
04:51 AM 26.2°F-3.2°C 11.7°F-11.3°C 54% 1.4 mph N2.3 kmh N 3.4 mph5.5 kmh 29.36 in994.2 mb 0.00 in0.0 mm 0.00 in0.0 mm 0.00 in0.0 mm
05:06 AM 26.4°F-3.1°C 11.8°F-11.2°C 54% 1.4 mph N2.3 kmh N 3.4 mph5.5 kmh 29.36 in994.2 mb 0.00 in0.0 mm 0.00 in0.0 mm 0.00 in0.0 mm
05:21 AM 26.4°F-3.1°C 11.0°F-11.7°C 52% 1.4 mph N2.3 kmh N 3.4 mph5.5 kmh 29.36 in994.2 mb 0.00 in0.0 mm 0.00 in0.0 mm 0.00 in0.0 mm
05:36 AM 26.2°F-3.2°C 9.9°F-12.3°C 50% Calm Calm 2.0 mph3.2 kmh 29.36 in994.2 mb 0.00 in0.0 mm 0.00 in0.0 mm 0.00 in0.0 mm
05:51 AM 26.2°F-3.2°C 9.5°F-12.5°C 49% 0.6 mph N1.0 kmh N 2.8 mph4.5 kmh 29.36 in994.2 mb 0.00 in0.0 mm 0.00 in0.0 mm 0.00 in0.0 mm
06:06 AM 26.2°F-3.2°C 8.6°F-13.0°C 47% Calm Calm 1.4 mph2.3 kmh 29.36 in994.2 mb 0.00 in0.0 mm 0.00 in0.0 mm 0.00 in0.0 mm
06:21 AM 26.2°F-3.2°C 7.1°F-13.8°C 44% 0.6 mph N1.0 kmh N 2.8 mph4.5 kmh 29.36 in994.2 mb 0.00 in0.0 mm 0.00 in0.0 mm 0.00 in0.0 mm
06:36 AM 26.2°F-3.2°C 6.1°F-14.4°C 42% 1.4 mph N2.3 kmh N 4.0 mph6.4 kmh 29.37 in994.6 mb 0.00 in0.0 mm 0.00 in0.0 mm 0.00 in0.0 mm
06:51 AM 26.6°F-3.0°C 5.3°F-14.8°C 40% 0.6 mph N1.0 kmh N 2.8 mph4.5 kmh 29.37 in994.6 mb 0.00 in0.0 mm 0.00 in0.0 mm 0.00 in0.0 mm
07:06 AM 26.6°F-3.0°C 4.8°F-15.1°C 39% 0.6 mph N1.0 kmh N 2.8 mph4.5 kmh 29.38 in994.9 mb 0.00 in0.0 mm 0.00 in0.0 mm 0.00 in0.0 mm
07:21 AM 26.4°F-3.1°C 4.0°F-15.6°C 38% 0.6 mph N1.0 kmh N 1.4 mph2.3 kmh 29.38 in994.9 mb 0.00 in0.0 mm 0.00 in0.0 mm 0.00 in0.0 mm
07:36 AM 26.6°F-3.0°C 3.0°F-16.1°C 36% 0.6 mph N1.0 kmh N 2.8 mph4.5 kmh 29.38 in994.9 mb 0.00 in0.0 mm 0.00 in0.0 mm 0.00 in0.0 mm
07:51 AM 26.6°F-3.0°C 3.0°F-16.1°C 36% Calm Calm 1.4 mph2.3 kmh 29.37 in994.6 mb 0.00 in0.0 mm 0.00 in0.0 mm 0.00 in0.0 mm
08:06 AM 26.8°F-2.9°C 2.6°F-16.3°C 35% Calm Calm 1.4 mph2.3 kmh 29.37 in994.6 mb 0.00 in0.0 mm 0.00 in0.0 mm 0.00 in0.0 mm
08:21 AM 26.8°F-2.9°C 1.3°F-17.1°C 33% Calm Calm 1.4 mph2.3 kmh 29.37 in994.6 mb 0.00 in0.0 mm 0.00 in0.0 mm 0.00 in0.0 mm
08:36 AM 27.0°F-2.8°C 0.8°F-17.3°C 32% Calm Calm 2.0 mph3.2 kmh 29.36 in994.2 mb 0.00 in0.0 mm 0.00 in0.0 mm 0.00 in0.0 mm
08:51 AM 27.1°F-2.7°C 1.0°F-17.2°C 32% 0.6 mph N1.0 kmh N 3.4 mph5.5 kmh 29.36 in994.2 mb 0.00 in0.0 mm 0.00 in0.0 mm 0.00 in0.0 mm
09:06 AM 27.1°F-2.7°C 0.3°F-17.6°C 31% Calm Calm 1.4 mph2.3 kmh 29.37 in994.6 mb 0.00 in0.0 mm 0.00 in0.0 mm 0.00 in0.0 mm
09:21 AM 27.1°F-2.7°C -0.4°F-18.0°C 30% 0.6 mph N1.0 kmh N 2.0 mph3.2 kmh 29.36 in994.2 mb 0.00 in0.0 mm 0.00 in0.0 mm 0.00 in0.0 mm
09:36 AM 27.0°F-2.8°C -2.0°F-18.9°C 28% Calm Calm 1.4 mph2.3 kmh 29.36 in994.2 mb 0.00 in0.0 mm 0.00 in0.0 mm 0.00 in0.0 mm
09:51 AM 27.0°F-2.8°C -2.8°F-19.3°C 27% 0.6 mph N1.0 kmh N 2.8 mph4.5 kmh 29.36 in994.2 mb 0.00 in0.0 mm 0.00 in0.0 mm 0.00 in0.0 mm
10:06 AM 27.3°F-2.6°C -3.3°F-19.6°C 26% Calm Calm 2.0 mph3.2 kmh 29.36 in994.2 mb 0.00 in0.0 mm 0.00 in0.0 mm 0.00 in0.0 mm
10:21 AM 27.0°F-2.8°C -5.2°F-20.7°C 24% Calm Calm 0.6 mph1.0 kmh 29.36 in994.2 mb 0.00 in0.0 mm 0.00 in0.0 mm 0.00 in0.0 mm
10:36 AM 26.4°F-3.1°C -6.6°F-21.4°C 23% 1.4 mph N2.3 kmh N 3.4 mph5.5 kmh 29.37 in994.6 mb 0.00 in0.0 mm 0.00 in0.0 mm 0.00 in0.0 mm
10:51 AM 26.6°F-3.0°C -8.3°F-22.4°C 21% 1.4 mph N2.3 kmh N 4.8 mph7.7 kmh 29.37 in994.6 mb 0.00 in0.0 mm 0.00 in0.0 mm 0.00 in0.0 mm
11:06 AM 26.4°F-3.1°C -9.4°F-23.0°C 20% 1.4 mph N2.3 kmh N 2.8 mph4.5 kmh 29.37 in994.6 mb 0.00 in0.0 mm 0.00 in0.0 mm 0.00 in0.0 mm
11:21 AM 26.2°F-3.2°C -12.8°F-24.9°C 17% 0.6 mph N1.0 kmh N 2.0 mph3.2 kmh 29.37 in994.6 mb 0.00 in0.0 mm 0.00 in0.0 mm 0.00 in0.0 mm
11:36 AM 26.1°F-3.3°C -14.1°F-25.6°C 16% 2.0 mph N3.2 kmh N 4.8 mph7.7 kmh 29.37 in994.6 mb 0.00 in0.0 mm 0.00 in0.0 mm 0.00 in0.0 mm
11:51 AM 26.4°F-3.1°C -15.1°F-26.2°C 15% 0.6 mph N1.0 kmh N 2.8 mph4.5 kmh 29.37 in994.6 mb 0.00 in0.0 mm 0.00 in0.0 mm 0.00 in0.0 mm
12:06 PM 26.6°F-3.0°C -16.3°F-26.8°C 14% 0.6 mph N1.0 kmh N 2.0 mph3.2 kmh 29.37 in994.6 mb 0.00 in0.0 mm 0.00 in0.0 mm 0.00 in0.0 mm
12:21 PM 26.2°F-3.2°C -19.5°F-28.6°C 12% 2.0 mph N3.2 kmh N 5.4 mph8.7 kmh 29.36 in994.2 mb 0.00 in0.0 mm 0.00 in0.0 mm 0.00 in0.0 mm
12:36 PM 26.2°F-3.2°C -18.0°F-27.8°C 13% 1.4 mph N2.3 kmh N 3.4 mph5.5 kmh 29.36 in994.2 mb 0.00 in0.0 mm 0.00 in0.0 mm 0.00 in0.0 mm
12:51 PM 26.4°F-3.1°C -17.8°F-27.7°C 13% Calm Calm 2.0 mph3.2 kmh 29.36 in994.2 mb 0.00 in0.0 mm 0.00 in0.0 mm 0.00 in0.0 mm
01:06 PM 26.6°F-3.0°C -17.7°F-27.6°C 13% Calm Calm 1.4 mph2.3 kmh 29.36 in994.2 mb 0.00 in0.0 mm 0.00 in0.0 mm 0.00 in0.0 mm
01:21 PM 26.6°F-3.0°C -17.7°F-27.6°C 13% Calm Calm 0.6 mph1.0 kmh 29.36 in994.2 mb 0.00 in0.0 mm 0.00 in0.0 mm 0.00 in0.0 mm
01:36 PM 26.8°F-2.9°C -16.1°F-26.7°C 14% Calm Calm 1.4 mph2.3 kmh 29.36 in994.2 mb 0.00 in0.0 mm 0.00 in0.0 mm 0.00 in0.0 mm
01:51 PM 26.8°F-2.9°C -16.1°F-26.7°C 14% Calm Calm 0.6 mph1.0 kmh 29.35 in993.9 mb 0.00 in0.0 mm 0.00 in0.0 mm 0.00 in0.0 mm
02:06 PM 27.1°F-2.7°C -14.5°F-25.8°C 15% Calm Calm 1.4 mph2.3 kmh 29.36 in994.2 mb 0.00 in0.0 mm 0.00 in0.0 mm 0.00 in0.0 mm
02:21 PM 27.1°F-2.7°C -15.8°F-26.6°C 14% Calm Calm 1.4 mph2.3 kmh 29.36 in994.2 mb 0.00 in0.0 mm 0.00 in0.0 mm 0.00 in0.0 mm
02:36 PM 27.0°F-2.8°C -16.0°F-26.7°C 14% Calm Calm 2.0 mph3.2 kmh 29.36 in994.2 mb 0.00 in0.0 mm 0.00 in0.0 mm 0.00 in0.0 mm
02:51 PM 27.0°F-2.8°C -17.4°F-27.4°C 13% Calm Calm 0.6 mph1.0 kmh 29.36 in994.2 mb 0.00 in0.0 mm 0.00 in0.0 mm 0.00 in0.0 mm
03:06 PM 27.0°F-2.8°C -18.9°F-28.3°C 12% Calm Calm 1.4 mph2.3 kmh 29.36 in994.2 mb 0.00 in0.0 mm 0.00 in0.0 mm 0.00 in0.0 mm
03:21 PM 26.8°F-2.9°C -19.1°F-28.4°C 12% Calm Calm 1.4 mph2.3 kmh 29.37 in994.6 mb 0.00 in0.0 mm 0.00 in0.0 mm 0.00 in0.0 mm
03:36 PM 26.8°F-2.9°C -19.1°F-28.4°C 12% Calm Calm 0.6 mph1.0 kmh 29.37 in994.6 mb 0.00 in0.0 mm 0.00 in0.0 mm 0.00 in0.0 mm
03:51 PM 26.6°F-3.0°C -20.8°F-29.3°C 11% Calm Calm -- 29.37 in994.6 mb 0.00 in0.0 mm 0.00 in0.0 mm 0.00 in0.0 mm
04:06 PM 26.6°F-3.0°C -19.2°F-28.4°C 12% Calm Calm 0.6 mph1.0 kmh 29.37 in994.6 mb 0.00 in0.0 mm 0.00 in0.0 mm 0.00 in0.0 mm
04:21 PM 26.4°F-3.1°C -21.0°F-29.4°C 11% Calm Calm 1.4 mph2.3 kmh 29.38 in994.9 mb 0.00 in0.0 mm 0.00 in0.0 mm 0.00 in0.0 mm
04:36 PM 26.4°F-3.1°C -19.3°F-28.5°C 12% Calm Calm 0.6 mph1.0 kmh 29.38 in994.9 mb 0.00 in0.0 mm 0.00 in0.0 mm 0.00 in0.0 mm
04:51 PM 26.4°F-3.1°C -19.3°F-28.5°C 12% Calm Calm 0.6 mph1.0 kmh 29.39 in995.3 mb 0.00 in0.0 mm 0.00 in0.0 mm 0.00 in0.0 mm
05:06 PM 26.2°F-3.2°C -19.5°F-28.6°C 12% Calm Calm 0.6 mph1.0 kmh 29.39 in995.3 mb 0.00 in0.0 mm 0.00 in0.0 mm 0.00 in0.0 mm
05:21 PM 25.9°F-3.4°C -18.3°F-27.9°C 13% Calm Calm -- 29.39 in995.3 mb 0.00 in0.0 mm 0.00 in0.0 mm 0.00 in0.0 mm
05:36 PM 26.1°F-3.3°C -18.1°F-27.8°C 13% Calm Calm 0.6 mph1.0 kmh 29.40 in995.6 mb 0.00 in0.0 mm 0.00 in0.0 mm 0.00 in0.0 mm
05:51 PM 25.9°F-3.4°C -16.8°F-27.1°C 14% Calm Calm -- 29.41 in995.9 mb 0.00 in0.0 mm 0.00 in0.0 mm 0.00 in0.0 mm
06:06 PM 25.9°F-3.4°C -16.8°F-27.1°C 14% Calm Calm -- 29.41 in995.9 mb 0.00 in0.0 mm 0.00 in0.0 mm 0.00 in0.0 mm
06:21 PM 25.9°F-3.4°C -16.8°F-27.1°C 14% Calm Calm 0.6 mph1.0 kmh 29.41 in995.9 mb 0.00 in0.0 mm 0.00 in0.0 mm 0.00 in0.0 mm
06:36 PM 26.1°F-3.3°C -16.7°F-27.1°C 14% Calm Calm -- 29.40 in995.6 mb 0.00 in0.0 mm 0.00 in0.0 mm 0.00 in0.0 mm
06:51 PM 26.2°F-3.2°C -16.6°F-27.0°C 14% Calm Calm 0.6 mph1.0 kmh 29.41 in995.9 mb 0.00 in0.0 mm 0.00 in0.0 mm 0.00 in0.0 mm
07:06 PM 26.2°F-3.2°C -16.6°F-27.0°C 14% Calm Calm 0.6 mph1.0 kmh 29.41 in995.9 mb 0.00 in0.0 mm 0.00 in0.0 mm 0.00 in0.0 mm
07:21 PM 26.4°F-3.1°C -16.4°F-26.9°C 14% Calm Calm 0.6 mph1.0 kmh 29.41 in995.9 mb 0.00 in0.0 mm 0.00 in0.0 mm 0.00 in0.0 mm
07:36 PM 26.2°F-3.2°C -16.6°F-27.0°C 14% Calm Calm 0.6 mph1.0 kmh 29.42 in996.3 mb 0.00 in0.0 mm 0.00 in0.0 mm 0.00 in0.0 mm
07:51 PM 26.4°F-3.1°C -16.4°F-26.9°C 14% Calm Calm 0.6 mph1.0 kmh 29.42 in996.3 mb 0.00 in0.0 mm 0.00 in0.0 mm 0.00 in0.0 mm
08:06 PM 26.8°F-2.9°C -16.1°F-26.7°C 14% Calm Calm -- 29.42 in996.3 mb 0.00 in0.0 mm 0.00 in0.0 mm 0.00 in0.0 mm
08:21 PM 26.8°F-2.9°C -16.1°F-26.7°C 14% Calm Calm -- 29.42 in996.3 mb 0.00 in0.0 mm 0.00 in0.0 mm 0.00 in0.0 mm
08:36 PM 26.6°F-3.0°C -16.3°F-26.8°C 14% Calm Calm -- 29.42 in996.3 mb 0.00 in0.0 mm 0.00 in0.0 mm 0.00 in0.0 mm
08:51 PM 26.8°F-2.9°C -16.1°F-26.7°C 14% Calm Calm 1.4 mph2.3 kmh 29.42 in996.3 mb 0.00 in0.0 mm 0.00 in0.0 mm 0.00 in0.0 mm
09:06 PM 27.0°F-2.8°C -17.4°F-27.4°C 13% Calm Calm 1.4 mph2.3 kmh 29.43 in996.6 mb 0.00 in0.0 mm 0.00 in0.0 mm 0.00 in0.0 mm
09:21 PM 27.0°F-2.8°C -17.4°F-27.4°C 13% Calm Calm 0.6 mph1.0 kmh 29.43 in996.6 mb 0.00 in0.0 mm 0.00 in0.0 mm 0.00 in0.0 mm
09:36 PM 27.0°F-2.8°C -17.4°F-27.4°C 13% Calm Calm 0.6 mph1.0 kmh 29.43 in996.6 mb 0.00 in0.0 mm 0.00 in0.0 mm 0.00 in0.0 mm
09:51 PM 27.0°F-2.8°C -17.4°F-27.4°C 13% Calm Calm 0.6 mph1.0 kmh 29.43 in996.6 mb 0.00 in0.0 mm 0.00 in0.0 mm 0.00 in0.0 mm
10:06 PM 27.1°F-2.7°C -17.3°F-27.4°C 13% Calm Calm -- 29.44 in997.0 mb 0.00 in0.0 mm 0.00 in0.0 mm 0.00 in0.0 mm
10:21 PM 27.0°F-2.8°C -17.4°F-27.4°C 13% Calm Calm 1.4 mph2.3 kmh 29.44 in997.0 mb 0.00 in0.0 mm 0.00 in0.0 mm 0.00 in0.0 mm
10:36 PM 27.1°F-2.7°C -17.3°F-27.4°C 13% Calm Calm 0.6 mph1.0 kmh 29.45 in997.3 mb 0.00 in0.0 mm 0.00 in0.0 mm 0.00 in0.0 mm
10:51 PM 27.1°F-2.7°C -17.3°F-27.4°C 13% Calm Calm -- 29.45 in997.3 mb 0.00 in0.0 mm 0.00 in0.0 mm 0.00 in0.0 mm
11:06 PM 27.1°F-2.7°C -17.3°F-27.4°C 13% Calm Calm 0.6 mph1.0 kmh 29.46 in997.6 mb 0.00 in0.0 mm 0.00 in0.0 mm 0.00 in0.0 mm
11:21 PM 27.1°F-2.7°C -17.3°F-27.4°C 13% Calm Calm 0.6 mph1.0 kmh 29.46 in997.6 mb 0.00 in0.0 mm 0.00 in0.0 mm 0.00 in0.0 mm
11:36 PM 27.1°F-2.7°C -17.3°F-27.4°C 13% Calm Calm -- 29.47 in998.0 mb 0.00 in0.0 mm 0.00 in0.0 mm 0.00 in0.0 mm
11:51 PM 27.0°F-2.8°C -17.4°F-27.4°C 13% Calm Calm -- 29.47 in998.0 mb 0.00 in0.0 mm 0.00 in0.0 mm 0.00 in0.0 mm